Time;durP1;ratioP1;P1;durP2;ratioP2;P2;SDS_P1;SDS_P2;PMS_P1;PMS_P2;Temp;Humidity;BMP_temperature;BMP_pressure;BME280_temperature;BME280_humidity;BME280_pressure;Samples;Min_cycle;Max_cycle;Signal;HPM_P1;HPM_P2
2023/10/17 00:01:59;;;;;;;5.32;4.57;;;10.30;99.90;;;;;;4926879;29;20232;-93
2023/10/17 00:04:32;;;;;;;4.60;4.15;;;10.30;99.90;;;;;;4928130;29;20360;-93
2023/10/17 00:07:02;;;;;;;7.32;5.07;;;10.30;99.90;;;;;;4938538;29;20307;-93
2023/10/17 00:09:36;;;;;;;5.45;4.72;;;10.40;99.90;;;;;;4937301;29;20687;-84
2023/10/17 00:12:09;;;;;;;5.32;4.80;;;10.40;99.90;;;;;;4937802;29;20289;-84
2023/10/17 00:14:45;;;;;;;4.70;3.70;;;10.40;99.90;;;;;;4930518;29;20229;-93
2023/10/17 00:17:15;;;;;;;4.95;4.47;;;10.40;99.90;;;;;;4938468;29;20275;-83
2023/10/17 00:19:44;;;;;;;6.85;5.28;;;10.40;99.90;;;;;;4937367;29;20291;-84
2023/10/17 00:22:16;;;;;;;5.95;4.43;;;10.40;99.90;;;;;;4938063;29;20606;-93
2023/10/17 00:24:46;;;;;;;5.40;4.65;;;10.30;99.90;;;;;;4937975;29;20225;-93
2023/10/17 00:27:13;;;;;;;4.95;4.43;;;10.30;99.90;;;;;;4937931;29;20225;-93
2023/10/17 00:29:40;;;;;;;8.02;4.60;;;10.30;99.90;;;;;;4917981;29;20229;-93
2023/10/17 00:32:09;;;;;;;4.78;4.25;;;10.30;99.90;;;;;;4928607;29;20587;-93
2023/10/17 00:34:37;;;;;;;9.07;5.38;;;10.40;99.90;;;;;;4937748;29;20237;-93
2023/10/17 00:37:11;;;;;;;4.45;4.05;;;10.40;99.90;;;;;;4941355;29;20231;-93
2023/10/17 00:39:38;;;;;;;5.20;4.70;;;10.40;99.90;;;;;;4944210;29;20681;-92
2023/10/17 00:44:52;;;;;;;5.30;4.80;;;10.40;99.90;;;;;;4946176;29;20625;-84
2023/10/17 00:47:48;;;;;;;4.97;4.47;;;10.40;99.90;;;;;;4938134;29;20244;-93
2023/10/17 00:50:19;;;;;;;5.43;4.93;;;10.40;99.90;;;;;;4938446;29;20307;-94
2023/10/17 00:52:51;;;;;;;6.00;4.85;;;10.40;99.90;;;;;;4938143;29;20229;-84
2023/10/17 00:55:20;;;;;;;5.85;4.80;;;10.40;99.90;;;;;;4935977;29;20260;-83
2023/10/17 00:57:50;;;;;;;5.22;4.05;;;10.40;99.90;;;;;;4937868;29;20220;-83
2023/10/17 01:00:23;;;;;;;6.90;4.85;;;10.40;99.90;;;;;;4937121;29;20228;-93
2023/10/17 01:03:00;;;;;;;5.22;4.65;;;10.40;99.90;;;;;;4936866;29;20228;-84
2023/10/17 01:05:29;;;;;;;7.30;5.90;;;10.50;99.90;;;;;;4936757;29;20237;-84
2023/10/17 01:07:57;;;;;;;5.40;4.65;;;10.50;99.90;;;;;;4938152;29;20229;-84
2023/10/17 01:10:26;;;;;;;7.07;6.20;;;10.50;99.90;;;;;;4937261;29;20324;-92
2023/10/17 01:12:54;;;;;;;8.35;5.60;;;10.50;99.90;;;;;;4938112;29;20236;-84
2023/10/17 01:15:21;;;;;;;6.95;5.50;;;10.50;99.90;;;;;;4936618;29;20243;-83
2023/10/17 01:17:49;;;;;;;6.13;5.50;;;10.60;99.90;;;;;;4936971;29;20228;-84
2023/10/17 01:20:19;;;;;;;6.03;5.43;;;10.50;99.90;;;;;;4938063;29;20763;-93
2023/10/17 01:22:47;;;;;;;6.40;5.25;;;10.50;99.90;;;;;;4937726;29;20240;-93
2023/10/17 01:25:24;;;;;;;6.72;4.70;;;10.50;99.90;;;;;;4936256;29;20234;-84
2023/10/17 01:27:52;;;;;;;6.68;5.20;;;10.50;99.90;;;;;;4937043;29;20220;-93
2023/10/17 01:30:19;;;;;;;5.40;4.90;;;10.60;99.90;;;;;;4937517;29;20288;-93
2023/10/17 01:32:48;;;;;;;4.70;4.20;;;10.50;99.90;;;;;;4925708;29;20231;-84
2023/10/17 01:35:19;;;;;;;5.55;5.05;;;10.50;99.90;;;;;;4936362;29;20231;-84
2023/10/17 01:37:46;;;;;;;5.57;4.90;;;10.50;99.90;;;;;;4936009;29;20217;-83
2023/10/17 01:40:22;;;;;;;5.20;3.63;;;10.50;99.90;;;;;;4936374;29;20228;-84
2023/10/17 01:42:50;;;;;;;5.05;4.55;;;10.50;99.90;;;;;;4935524;29;20234;-84
2023/10/17 01:45:22;;;;;;;6.63;4.25;;;10.50;99.90;;;;;;4936003;29;20266;-84
2023/10/17 01:47:51;;;;;;;5.45;4.95;;;10.50;99.90;;;;;;4935993;29;20672;-84
2023/10/17 01:50:18;;;;;;;5.70;4.82;;;10.50;99.90;;;;;;4936472;29;20323;-83
2023/10/17 01:53:12;;;;;;;4.88;4.38;;;10.60;99.90;;;;;;4935689;29;20243;-93
2023/10/17 01:55:49;;;;;;;5.03;3.95;;;10.60;99.90;;;;;;4996797;23;20562;-84
2023/10/17 01:58:19;;;;;;;6.50;4.07;;;10.60;99.90;;;;;;4928055;29;20625;-92
2023/10/17 02:04:18;;;;;;;5.80;4.57;;;10.60;99.90;;;;;;4941486;29;20559;-91
2023/10/17 02:06:48;;;;;;;5.28;4.57;;;10.60;99.90;;;;;;4919464;29;20237;-92
2023/10/17 02:09:24;;;;;;;4.40;3.97;;;10.60;99.90;;;;;;4916584;29;20296;-84
2023/10/17 02:11:56;;;;;;;4.80;4.30;;;10.60;99.90;;;;;;4916810;29;20233;-89
2023/10/17 02:14:23;;;;;;;4.85;4.40;;;10.60;99.90;;;;;;4918592;29;20615;-84
2023/10/17 02:17:19;;;;;;;6.53;4.38;;;10.60;99.90;;;;;;4917586;29;20229;-83
2023/10/17 02:19:48;;;;;;;6.80;4.38;;;10.70;99.90;;;;;;4909423;29;20249;-84
2023/10/17 02:22:16;;;;;;;4.40;4.00;;;10.70;99.90;;;;;;4925747;29;20284;-84
2023/10/17 02:27:23;;;;;;;5.55;4.13;;;10.70;99.90;;;;;;5007789;23;20247;-84
2023/10/17 02:29:55;;;;;;;5.47;4.13;;;10.70;99.90;;;;;;4957493;29;20335;-93
2023/10/17 02:32:26;;;;;;;5.25;4.28;;;10.80;99.90;;;;;;4956434;29;20259;-93
2023/10/17 02:35:14;;;;;;;7.30;4.75;;;10.80;99.90;;;;;;4944816;29;20247;-92
2023/10/17 02:43:35;;;;;;;5.15;4.47;;;10.80;99.90;;;;;;4935331;28;20212;-91
2023/10/17 02:46:26;;;;;;;6.00;4.20;;;10.80;99.90;;;;;;4918182;29;20232;-92
2023/10/17 02:49:43;;;;;;;5.90;4.97;;;10.80;99.90;;;;;;4932995;29;20312;-92
2023/10/17 02:52:17;;;;;;;4.72;4.10;;;10.90;99.90;;;;;;4917296;29;20715;-92
2023/10/17 02:54:59;;;;;;;6.00;4.40;;;10.90;99.90;;;;;;4928947;29;20229;-91
2023/10/17 02:57:33;;;;;;;5.75;4.18;;;10.90;99.90;;;;;;4887409;29;20237;-91
2023/10/17 03:00:19;;;;;;;4.90;4.25;;;10.90;99.90;;;;;;4939243;29;20239;-83
2023/10/17 03:02:52;;;;;;;5.47;4.13;;;10.90;99.90;;;;;;4939501;29;20236;-93
2023/10/17 03:05:20;;;;;;;6.32;5.07;;;10.90;99.90;;;;;;4939865;29;20228;-93
2023/10/17 03:07:52;;;;;;;5.68;5.07;;;10.90;99.90;;;;;;4940108;29;20570;-83
2023/10/17 03:10:36;;;;;;;6.65;5.93;;;11.00;99.90;;;;;;4942603;29;20311;-83
2023/10/17 03:15:50;;;;;;;5.85;4.82;;;11.00;99.90;;;;;;4935610;29;20229;-84
2023/10/17 03:18:18;;;;;;;6.60;5.13;;;10.90;99.90;;;;;;4942288;29;20232;-93
2023/10/17 03:21:18;;;;;;;5.15;4.22;;;11.00;99.90;;;;;;4948625;29;20220;-90
2023/10/17 03:23:50;;;;;;;4.75;4.35;;;11.00;99.90;;;;;;4937826;29;20671;-83
2023/10/17 03:26:21;;;;;;;5.10;4.63;;;10.90;99.90;;;;;;4945446;29;20647;-82
2023/10/17 03:28:51;;;;;;;5.38;4.88;;;10.90;99.90;;;;;;4939952;29;20225;-83
2023/10/17 03:31:21;;;;;;;4.90;4.00;;;10.90;99.90;;;;;;4939101;29;20239;-92
2023/10/17 03:33:50;;;;;;;5.20;3.80;;;10.90;99.90;;;;;;4938694;29;20232;-92
2023/10/17 03:39:17;;;;;;;3.40;2.92;;;10.90;99.90;;;;;;4937637;29;20722;-93
2023/10/17 03:41:45;;;;;;;4.05;3.70;;;10.90;99.90;;;;;;4938261;29;20315;-92
2023/10/17 03:44:15;;;;;;;5.03;4.55;;;11.00;99.90;;;;;;4931623;29;20224;-91
2023/10/17 03:46:48;;;;;;;4.85;4.45;;;10.90;99.90;;;;;;4921434;29;20745;-82
2023/10/17 03:49:36;;;;;;;4.88;3.75;;;10.90;99.90;;;;;;4939002;29;20283;-82
2023/10/17 03:52:06;;;;;;;6.10;3.92;;;10.90;99.90;;;;;;4938179;29;20232;-83
2023/10/17 03:54:44;;;;;;;5.38;4.60;;;10.90;99.90;;;;;;4937646;29;20251;-91
2023/10/17 03:57:15;;;;;;;6.10;4.55;;;10.90;99.90;;;;;;4936811;29;20225;-93
2023/10/17 03:59:55;;;;;;;6.57;4.10;;;10.90;99.90;;;;;;4942287;29;20308;-91
2023/10/17 04:02:35;;;;;;;4.85;4.05;;;10.90;99.90;;;;;;4941814;29;20315;-92
2023/10/17 04:05:10;;;;;;;3.63;3.30;;;10.90;99.90;;;;;;4936583;29;20239;-92
2023/10/17 04:08:17;;;;;;;5.43;3.70;;;10.90;99.90;;;;;;4947170;29;20228;-92
2023/10/17 04:16:34;;;;;;;5.20;4.00;;;10.90;99.90;;;;;;4919540;29;20687;-92
2023/10/17 04:19:07;;;;;;;4.68;4.05;;;10.90;99.90;;;;;;4920972;29;20234;-83
2023/10/17 04:21:45;;;;;;;4.93;4.03;;;10.90;99.90;;;;;;4899383;29;20252;-83
2023/10/17 04:24:18;;;;;;;4.72;4.00;;;10.90;99.90;;;;;;4918437;29;20225;-83
2023/10/17 04:26:47;;;;;;;4.78;3.60;;;10.90;99.90;;;;;;4903793;29;20769;-83
2023/10/17 04:29:18;;;;;;;4.07;3.72;;;10.90;99.90;;;;;;4919010;29;20293;-83
2023/10/17 04:31:47;;;;;;;4.28;3.50;;;10.90;99.90;;;;;;4920215;29;20300;-93
2023/10/17 04:34:21;;;;;;;12.73;4.45;;;10.90;99.90;;;;;;4921215;29;20225;-94
2023/10/17 04:36:51;;;;;;;3.97;3.67;;;10.90;99.90;;;;;;4919916;29;20308;-83
2023/10/17 04:39:25;;;;;;;5.88;3.80;;;10.90;99.90;;;;;;4910552;29;20229;-93
2023/10/17 04:44:52;;;;;;;3.83;3.53;;;10.90;99.90;;;;;;4892701;29;20229;-83
2023/10/17 04:47:29;;;;;;;5.03;3.70;;;11.00;99.90;;;;;;4883748;29;20558;-83
2023/10/17 04:50:11;;;;;;;4.32;3.33;;;11.00;99.90;;;;;;4919375;29;20551;-84
2023/10/17 04:52:42;;;;;;;7.47;3.95;;;11.00;99.90;;;;;;4930076;29;20225;-92
2023/10/17 04:55:21;;;;;;;5.32;4.47;;;11.00;99.90;;;;;;4924054;29;20221;-92
2023/10/17 04:57:57;;;;;;;6.00;4.05;;;11.00;99.90;;;;;;4918517;29;20229;-82
2023/10/17 05:01:10;;;;;;;4.40;4.00;;;11.00;99.90;;;;;;4918465;29;20235;-93
2023/10/17 05:03:46;;;;;;;7.93;4.38;;;11.00;99.90;;;;;;4917739;29;20232;-83
2023/10/17 05:06:38;;;;;;;5.72;5.13;;;11.00;99.90;;;;;;4910385;29;20564;-82
2023/10/17 06:17:47;;;;;;;7.55;4.22;;;11.20;99.90;;;;;;4926756;29;20239;-93
2023/10/17 06:20:44;;;;;;;3.92;3.50;;;11.20;99.90;;;;;;4935049;29;20252;-84
2023/10/17 06:26:22;;;;;;;7.28;3.90;;;11.30;99.90;;;;;;5170778;23;20261;-84
2023/10/17 06:30:05;;;;;;;5.88;3.65;;;11.30;99.90;;;;;;4931835;28;20236;-82
2023/10/17 06:32:15;;;;;;;4.43;3.95;;;11.40;99.90;;;;;;4959444;29;20310;-93
2023/10/17 06:34:48;;;;;;;8.02;6.93;;;11.40;99.90;;;;;;5048862;23;20315;-93
2023/10/17 06:37:20;;;;;;;9.05;5.38;;;11.40;99.90;;;;;;4940759;29;20209;-92
2023/10/17 06:40:15;;;;;;;7.38;4.78;;;11.50;99.90;;;;;;4940055;29;20232;-92
2023/10/17 06:45:37;;;;;;;5.80;4.25;;;11.50;99.90;;;;;;4938092;29;20225;-84
2023/10/17 06:48:10;;;;;;;6.07;4.65;;;11.50;99.90;;;;;;4940472;29;20303;-83
2023/10/17 06:53:34;;;;;;;6.90;4.90;;;11.60;99.90;;;;;;4926478;29;20232;-84
2023/10/17 06:56:13;;;;;;;5.90;4.20;;;11.60;99.90;;;;;;4928696;29;20766;-84
2023/10/17 06:58:47;;;;;;;5.82;4.60;;;11.60;99.90;;;;;;4938957;29;20305;-84
2023/10/17 07:04:15;;;;;;;5.75;4.57;;;11.70;99.90;;;;;;4931087;29;20221;-83
2023/10/17 07:07:02;;;;;;;;;;;;;;;;;;;;;
2023/10/17 07:09:42;;;;;;;7.00;5.93;;;11.70;99.90;;;;;;4940485;29;20228;-83
2023/10/17 07:18:50;;;;;;;5.78;5.28;;;11.80;99.90;;;;;;4939028;29;20311;-84
2023/10/17 07:21:28;;;;;;;7.47;5.47;;;11.80;99.90;;;;;;4926870;29;20240;-84
2023/10/17 07:24:13;;;;;;;5.53;4.88;;;11.80;99.90;;;;;;4918216;29;20220;-84
2023/10/17 07:27:11;;;;;;;9.05;6.47;;;11.90;99.90;;;;;;4921246;29;20312;-83
2023/10/17 07:33:25;;;;;;;7.07;5.75;;;11.90;99.90;;;;;;4917012;29;20292;-85
2023/10/17 07:36:43;;;;;;;7.55;5.65;;;11.90;99.90;;;;;;4839773;29;20553;-83
2023/10/17 07:42:52;;;;;;;;;;;;;;;;;;;;;
2023/10/17 07:45:48;;;;;;;10.15;6.72;;;12.10;99.90;;;;;;4918485;29;20228;-84
2023/10/17 07:48:37;;;;;;;6.50;5.20;;;12.00;99.90;;;;;;4930250;29;20239;-83
2023/10/17 07:51:20;;;;;;;;;;;;;;;;;;;;;
2023/10/17 07:54:16;;;;;;;7.25;5.60;;;12.10;99.90;;;;;;4932514;29;20225;-83
2023/10/17 07:56:50;;;;;;;10.68;6.40;;;12.10;99.90;;;;;;4918649;29;20257;-82
2023/10/17 07:59:36;;;;;;;11.07;5.45;;;12.20;99.90;;;;;;4939245;29;20228;-92
2023/10/17 08:02:19;;;;;;;12.63;6.30;;;12.20;99.90;;;;;;4941101;29;20291;-85
2023/10/17 08:04:56;;;;;;;8.35;6.45;;;12.30;99.90;;;;;;4926789;29;20557;-83
2023/10/17 08:07:29;;;;;;;7.15;5.60;;;12.40;99.90;;;;;;4946615;29;20247;-91
2023/10/17 08:13:30;;;;;;;6.82;5.20;;;12.50;99.90;;;;;;4907044;29;20311;-82
2023/10/17 08:16:23;;;;;;;6.32;5.03;;;12.60;99.90;;;;;;4925580;29;20243;-82
2023/10/17 08:18:55;;;;;;;6.68;4.80;;;12.60;99.90;;;;;;4938345;29;20217;-83
2023/10/17 08:21:48;;;;;;;5.97;4.18;;;12.60;99.90;;;;;;4937696;29;20307;-83
2023/10/17 08:24:15;;;;;;;8.45;4.00;;;12.70;99.90;;;;;;4927692;29;20233;-92
2023/10/17 08:26:42;;;;;;;3.97;3.67;;;12.70;99.90;;;;;;4921143;29;20240;-83
2023/10/17 08:29:20;;;;;;;6.85;4.13;;;12.80;99.90;;;;;;4936995;29;20625;-83
2023/10/17 08:34:52;;;;;;;;;;;;;;;;;;;;;
2023/10/17 08:40:57;;;;;;;5.35;3.10;;;12.90;99.90;;;;;;4921450;29;20235;-83
2023/10/17 08:43:32;;;;;;;4.30;2.90;;;13.00;99.90;;;;;;4926802;29;20233;-83
2023/10/17 08:46:20;;;;;;;;;;;;;;;;;;;;;
2023/10/17 08:49:17;;;;;;;3.25;2.28;;;13.00;99.90;;;;;;4907783;29;20237;-93
2023/10/17 08:52:11;;;;;;;3.75;3.05;;;13.00;99.90;;;;;;4925770;29;20229;-91
2023/10/17 08:54:49;;;;;;;2.70;2.50;;;13.10;99.90;;;;;;4941445;29;20244;-92
2023/10/17 08:57:21;;;;;;;3.38;2.33;;;13.20;99.90;;;;;;4941468;29;20224;-91
2023/10/17 09:03:00;;;;;;;3.05;2.70;;;13.20;99.90;;;;;;4904062;29;20224;-92
2023/10/17 09:08:51;;;;;;;4.43;3.78;;;13.30;99.90;;;;;;4931760;29;20240;-91
2023/10/17 09:11:34;;;;;;;3.47;3.17;;;13.30;99.90;;;;;;4939141;29;20311;-91
2023/10/17 09:17:13;;;;;;;5.63;3.65;;;13.40;99.90;;;;;;4911833;29;20228;-91
2023/10/17 09:19:51;;;;;;;4.43;2.55;;;13.40;99.90;;;;;;4943358;29;20235;-92
2023/10/17 09:22:40;;;;;;;3.22;2.70;;;13.50;99.90;;;;;;4938073;28;20258;-91
2023/10/17 09:28:33;;;;;;;2.10;1.90;;;13.60;99.90;;;;;;4935695;29;20489;-90
2023/10/17 09:31:08;;;;;;;2.10;1.77;;;13.70;99.90;;;;;;4934812;29;20484;-89
2023/10/17 09:33:45;;;;;;;2.80;1.95;;;13.70;99.90;;;;;;4928154;29;20600;-91
2023/10/17 09:36:17;;;;;;;3.03;2.55;;;13.80;99.90;;;;;;4925456;29;20312;-90
2023/10/17 09:38:47;;;;;;;2.13;1.50;;;13.80;99.90;;;;;;4927386;29;20228;-90
2023/10/17 09:41:19;;;;;;;4.60;1.90;;;13.80;99.90;;;;;;4929038;29;20567;-91
2023/10/17 09:43:59;;;;;;;2.23;1.87;;;13.80;99.90;;;;;;4928565;29;20480;-91
2023/10/17 09:46:31;;;;;;;2.97;1.50;;;13.90;99.90;;;;;;4938419;29;20537;-92
2023/10/17 09:49:12;;;;;;;3.47;1.10;;;13.90;99.90;;;;;;4928523;29;20479;-89
2023/10/17 09:51:41;;;;;;;1.97;0.97;;;13.90;99.60;;;;;;4936216;29;20244;-89
2023/10/17 09:54:25;;;;;;;1.75;1.58;;;14.00;98.80;;;;;;4936458;29;20469;-88
2023/10/17 09:57:02;;;;;;;1.60;1.50;;;13.90;98.50;;;;;;4937512;29;20327;-88
2023/10/17 10:02:56;;;;;;;2.37;1.30;;;13.90;98.10;;;;;;4865132;29;20224;-88
2023/10/17 10:05:32;;;;;;;2.53;2.00;;;13.90;97.70;;;;;;4929957;29;21366;-88
2023/10/17 10:08:04;;;;;;;2.80;1.53;;;13.90;97.60;;;;;;4926276;29;20460;-88
2023/10/17 10:10:52;;;;;;;2.00;1.70;;;14.00;98.00;;;;;;4935842;29;20890;-87
2023/10/17 10:13:24;;;;;;;1.93;1.10;;;14.00;98.00;;;;;;4930105;29;20848;-87
2023/10/17 10:16:01;;;;;;;1.87;1.43;;;13.90;97.70;;;;;;4936312;29;20473;-89
2023/10/17 10:18:58;;;;;;;4.97;1.73;;;14.00;97.50;;;;;;4924484;29;20484;-89
2023/10/17 10:22:00;;;;;;;1.30;1.10;;;14.00;97.20;;;;;;4935372;29;20530;-87
2023/10/17 10:24:50;;;;;;;1.60;1.10;;;14.00;96.90;;;;;;4904419;29;20585;-87
2023/10/17 10:30:48;;;;;;;1.93;1.50;;;14.00;95.80;;;;;;4909462;29;20784;-82
2023/10/17 10:33:16;;;;;;;1.97;1.23;;;14.00;95.80;;;;;;4925219;29;20465;-81
2023/10/17 10:35:49;;;;;;;1.40;1.00;;;14.00;95.90;;;;;;4934342;29;20487;-81
2023/10/17 10:38:20;;;;;;;2.27;1.57;;;14.00;95.80;;;;;;4935812;29;20469;-82
2023/10/17 10:40:47;;;;;;;1.40;1.10;;;14.00;95.80;;;;;;4926963;29;20476;-88
2023/10/17 10:43:20;;;;;;;3.47;1.53;;;14.00;95.60;;;;;;4935730;29;20476;-88
2023/10/17 10:46:09;;;;;;;2.30;1.27;;;14.10;95.70;;;;;;4924908;29;20489;-88
2023/10/17 10:48:38;;;;;;;1.37;1.03;;;14.00;95.50;;;;;;4930563;29;20481;-87
2023/10/17 10:51:49;;;;;;;1.33;1.10;;;14.00;95.60;;;;;;4935890;29;20547;-81
2023/10/17 10:54:17;;;;;;;2.30;1.47;;;14.00;95.60;;;;;;4900647;29;20469;-87
2023/10/17 10:56:51;;;;;;;2.63;1.20;;;14.00;95.00;;;;;;4936386;29;20540;-82
2023/10/17 10:59:21;;;;;;;2.90;1.07;;;14.00;95.10;;;;;;4934790;29;20476;-82
2023/10/17 11:01:53;;;;;;;2.77;1.20;;;14.00;95.10;;;;;;4935835;29;20468;-82
2023/10/17 11:07:45;;;;;;;4.03;1.70;;;14.00;95.10;;;;;;4930216;29;20480;-82
2023/10/17 11:10:14;;;;;;;1.83;1.10;;;14.10;95.30;;;;;;4926733;28;20452;-82
2023/10/17 11:12:53;;;;;;;1.57;1.47;;;14.10;95.20;;;;;;4926661;29;20544;-82
2023/10/17 11:15:26;;;;;;;2.97;1.50;;;14.10;94.90;;;;;;4937283;29;20571;-87
2023/10/17 11:18:28;;;;;;;1.80;1.30;;;14.10;95.30;;;;;;4950731;29;20519;-87
2023/10/17 11:21:05;;;;;;;2.50;2.30;;;14.10;95.20;;;;;;4923673;29;20891;-86
2023/10/17 11:23:35;;;;;;;2.30;2.10;;;14.20;95.30;;;;;;4940200;29;20479;-85
2023/10/17 11:26:12;;;;;;;2.43;2.10;;;14.20;95.30;;;;;;4915498;29;20982;-87
2023/10/17 11:28:46;;;;;;;1.10;1.00;;;14.20;95.40;;;;;;4922644;29;20482;-88
2023/10/17 11:31:21;;;;;;;1.80;1.40;;;14.20;95.50;;;;;;4930478;29;20487;-87
2023/10/17 11:33:54;;;;;;;3.10;1.37;;;14.30;95.50;;;;;;4929931;29;20476;-82
2023/10/17 11:36:24;;;;;;;1.20;1.10;;;14.30;95.50;;;;;;4920607;29;20552;-87
2023/10/17 11:39:39;;;;;;;1.37;1.20;;;14.30;95.70;;;;;;4937201;29;20468;-87
2023/10/17 11:42:35;;;;;;;;;;;;;;;;;;;;;
2023/10/17 11:45:19;;;;;;;2.63;1.60;;;14.40;96.20;;;;;;4938335;29;20477;-87
2023/10/17 11:47:58;;;;;;;;;;;;;;;;;;;;;
2023/10/17 11:50:40;;;;;;;1.77;1.47;;;14.40;96.30;;;;;;4923788;29;20475;-88
2023/10/17 11:53:14;;;;;;;1.77;1.20;;;14.40;96.30;;;;;;4938715;29;20507;-82
2023/10/17 11:55:50;;;;;;;1.77;1.40;;;14.40;96.00;;;;;;4938068;29;20473;-87
2023/10/17 11:58:25;;;;;;;2.17;1.80;;;14.40;95.80;;;;;;4917756;29;20487;-87
2023/10/17 12:00:52;;;;;;;3.30;1.80;;;14.40;95.90;;;;;;4939195;29;20468;-86
2023/10/17 12:03:25;;;;;;;2.67;1.50;;;14.40;96.00;;;;;;4938325;29;20484;-86
2023/10/17 12:05:52;;;;;;;1.83;1.30;;;14.50;96.10;;;;;;4939086;29;20500;-87
2023/10/17 12:08:29;;;;;;;3.77;2.40;;;14.50;96.10;;;;;;4938973;29;20488;-87
2023/10/17 12:10:56;;;;;;;2.97;1.30;;;14.50;96.30;;;;;;4929781;29;20820;-87
2023/10/17 12:13:26;;;;;;;2.13;1.30;;;14.50;96.30;;;;;;4938183;29;20488;-88
2023/10/17 12:15:56;;;;;;;4.90;1.93;;;14.50;96.60;;;;;;4937987;29;20504;-87
2023/10/17 12:18:27;;;;;;;1.37;1.20;;;14.60;96.30;;;;;;4928387;29;20464;-87
2023/10/17 12:23:46;;;;;;;3.83;1.63;;;14.60;96.70;;;;;;4898599;29;21023;-87
2023/10/17 12:26:14;;;;;;;4.00;1.47;;;14.50;96.80;;;;;;4936948;29;20553;-87
2023/10/17 12:29:28;;;;;;;4.00;2.03;;;14.40;95.90;;;;;;4937835;29;20497;-88
2023/10/17 12:32:41;;;;;;;1.57;1.10;;;14.40;96.10;;;;;;4914375;29;20972;-87
2023/10/17 12:35:23;;;;;;;1.57;1.17;;;14.50;96.20;;;;;;4916177;29;20560;-86
2023/10/17 12:41:33;;;;;;;3.53;1.50;;;14.40;96.40;;;;;;4921699;29;21008;-86
2023/10/17 12:44:04;;;;;;;1.60;1.50;;;14.40;96.20;;;;;;4910959;29;20555;-87
2023/10/17 12:50:29;;;;;;;2.27;1.27;;;14.40;95.90;;;;;;4905888;29;20547;-88
2023/10/17 12:52:59;;;;;;;2.47;1.80;;;14.40;96.30;;;;;;4926481;29;20481;-87
2023/10/17 12:55:34;;;;;;;1.20;1.10;;;14.40;96.00;;;;;;4927596;29;20520;-87
2023/10/17 12:58:07;;;;;;;2.43;1.20;;;14.40;96.00;;;;;;4936351;29;20473;-87
2023/10/17 13:00:39;;;;;;;1.53;1.23;;;14.30;95.40;;;;;;4921244;29;21018;-87
2023/10/17 13:03:08;;;;;;;2.77;1.50;;;14.30;95.10;;;;;;4936705;29;20990;-88
2023/10/17 13:05:37;;;;;;;2.17;1.40;;;14.30;95.00;;;;;;4937845;29;20483;-88
2023/10/17 13:08:05;;;;;;;4.30;1.57;;;14.30;95.20;;;;;;4938177;29;20802;-87
2023/10/17 13:10:32;;;;;;;4.40;1.30;;;14.30;95.30;;;;;;4942367;29;20543;-87
2023/10/17 13:13:00;;;;;;;2.80;1.47;;;14.30;95.50;;;;;;4943303;29;20480;-87
2023/10/17 13:15:31;;;;;;;3.20;1.40;;;14.30;95.90;;;;;;4941596;29;20477;-87
2023/10/17 13:18:12;;;;;;;3.50;1.43;;;14.30;96.00;;;;;;4943952;29;20476;-87
2023/10/17 13:21:08;;;;;;;;;;;;;;;;;;;;;
2023/10/17 13:23:37;;;;;;;2.87;1.50;;;14.30;96.10;;;;;;4935990;29;20557;-87
2023/10/17 13:26:11;;;;;;;3.30;1.80;;;14.40;95.90;;;;;;4937526;29;20481;-82
2023/10/17 13:28:38;;;;;;;2.30;1.70;;;14.30;95.80;;;;;;4925995;29;20469;-82
2023/10/17 13:31:22;;;;;;;7.77;5.27;;;14.40;95.80;;;;;;4936750;29;20484;-81
2023/10/17 13:37:32;;;;;;;2.60;2.40;;;14.30;95.80;;;;;;4913425;29;20484;-87
2023/10/17 13:40:21;;;;;;;1.70;1.43;;;14.30;95.90;;;;;;4930893;29;20473;-87
2023/10/17 13:42:52;;;;;;;2.50;2.10;;;14.30;96.10;;;;;;4917276;29;20963;-87
2023/10/17 13:45:21;;;;;;;3.20;2.43;;;14.30;96.30;;;;;;4938706;29;20492;-84
2023/10/17 13:50:46;;;;;;;4.70;2.27;;;14.30;96.30;;;;;;4908756;29;20600;-82
2023/10/17 13:53:16;;;;;;;1.93;1.40;;;14.30;96.30;;;;;;4936816;29;20480;-88
2023/10/17 13:55:45;;;;;;;4.87;1.40;;;14.30;96.40;;;;;;4927579;29;20481;-81
2023/10/17 13:58:12;;;;;;;2.73;2.00;;;14.30;96.30;;;;;;4925520;29;20552;-82
2023/10/17 14:00:44;;;;;;;2.80;1.30;;;14.20;96.30;;;;;;4911235;29;20477;-82
2023/10/17 14:03:17;;;;;;;2.37;1.90;;;14.20;96.30;;;;;;4935819;29;20465;-82
2023/10/17 14:06:14;;;;;;;2.10;1.90;;;14.20;96.20;;;;;;4935995;29;20552;-81
2023/10/17 14:08:42;;;;;;;2.80;1.70;;;14.20;96.20;;;;;;4935526;29;20500;-83
2023/10/17 14:11:17;;;;;;;2.70;1.43;;;14.20;96.10;;;;;;4939721;29;20548;-81
2023/10/17 14:13:51;;;;;;;2.10;1.10;;;14.20;96.00;;;;;;4935221;29;20476;-81
2023/10/17 14:17:03;;;;;;;1.20;1.10;;;14.20;95.40;;;;;;4936958;29;20867;-82
2023/10/17 14:19:40;;;;;;;5.20;1.80;;;14.20;95.20;;;;;;4926601;29;20508;-81
2023/10/17 14:22:38;;;;;;;5.60;1.90;;;14.10;95.00;;;;;;4936407;29;20483;-81
2023/10/17 14:25:06;;;;;;;4.30;2.10;;;14.10;95.30;;;;;;4936287;29;20472;-82
2023/10/17 14:27:41;;;;;;;1.60;1.40;;;14.10;95.40;;;;;;4934394;29;20548;-81
2023/10/17 14:30:12;;;;;;;1.40;1.27;;;14.10;95.70;;;;;;4935023;29;20863;-81
2023/10/17 14:32:39;;;;;;;1.67;1.57;;;14.10;95.90;;;;;;4936093;29;20512;-81
2023/10/17 14:35:47;;;;;;;1.70;1.60;;;14.20;96.00;;;;;;4935826;29;20484;-83
2023/10/17 14:38:14;;;;;;;2.43;1.87;;;14.10;96.00;;;;;;4939168;29;20472;-81
2023/10/17 14:40:42;;;;;;;2.07;1.20;;;14.20;95.90;;;;;;4941853;29;20555;-81
2023/10/17 14:43:14;;;;;;;2.03;1.47;;;14.20;95.90;;;;;;4939576;29;20453;-81
2023/10/17 14:46:05;;;;;;;1.67;1.10;;;14.20;95.90;;;;;;4926782;29;20831;-82
2023/10/17 14:48:32;;;;;;;1.30;1.20;;;14.20;95.70;;;;;;4936824;29;20469;-82
2023/10/17 14:51:03;;;;;;;1.80;1.50;;;14.20;95.70;;;;;;4930434;29;20468;-82
2023/10/17 14:53:30;;;;;;;2.20;1.50;;;14.10;95.80;;;;;;4941121;29;20567;-81
2023/10/17 14:55:58;;;;;;;1.87;1.27;;;14.10;95.90;;;;;;4946553;29;20469;-86
2023/10/17 14:58:27;;;;;;;2.80;1.20;;;14.10;96.10;;;;;;4942897;29;20472;-81
2023/10/17 15:00:57;;;;;;;2.47;1.70;;;14.10;96.20;;;;;;4941504;29;20555;-87
2023/10/17 15:03:30;;;;;;;1.20;1.10;;;14.10;96.00;;;;;;4927700;29;20532;-81
2023/10/17 15:05:57;;;;;;;1.87;1.23;;;14.10;95.90;;;;;;4921400;29;20473;-81
2023/10/17 15:08:26;;;;;;;3.00;1.40;;;14.00;95.80;;;;;;4903268;29;20972;-82
2023/10/17 15:11:10;;;;;;;5.10;1.53;;;14.00;95.80;;;;;;4927653;29;20559;-82
2023/10/17 15:13:37;;;;;;;1.97;1.60;;;14.00;96.10;;;;;;4918125;29;20563;-82
2023/10/17 15:19:43;;;;;;;1.73;1.30;;;13.90;96.80;;;;;;4934020;29;20463;-82
2023/10/17 15:22:11;;;;;;;1.97;1.23;;;13.90;97.30;;;;;;4941844;29;20505;-87
2023/10/17 15:24:48;;;;;;;1.98;1.20;;;13.90;97.50;;;;;;4940870;29;20472;-83
2023/10/17 15:27:15;;;;;;;2.63;1.40;;;13.80;97.50;;;;;;4936074;29;20666;-83
2023/10/17 15:29:42;;;;;;;1.40;1.27;;;13.80;97.50;;;;;;4938916;29;20492;-82
2023/10/17 15:32:13;;;;;;;2.97;2.10;;;13.80;97.70;;;;;;4938078;29;20480;-83
2023/10/17 15:34:40;;;;;;;3.60;1.70;;;13.80;97.90;;;;;;4939119;29;20511;-82
2023/10/17 15:37:07;;;;;;;4.30;1.87;;;13.80;98.00;;;;;;4939108;29;20476;-82
2023/10/17 15:39:42;;;;;;;2.30;1.57;;;13.70;97.40;;;;;;4938260;29;20477;-82
2023/10/17 15:42:11;;;;;;;2.30;1.70;;;13.70;97.10;;;;;;4938572;29;20559;-81
2023/10/17 15:45:11;;;;;;;2.30;2.10;;;13.70;97.20;;;;;;4939602;29;20850;-82
2023/10/17 15:47:40;;;;;;;4.47;2.65;;;13.60;97.40;;;;;;4938551;29;20475;-83
2023/10/17 15:50:08;;;;;;;2.37;1.87;;;13.60;97.50;;;;;;4930201;29;20253;-82
2023/10/17 15:53:17;;;;;;;3.00;2.00;;;13.60;97.60;;;;;;4938724;29;20835;-82
2023/10/17 15:55:52;;;;;;;4.37;2.47;;;13.60;97.80;;;;;;4930382;29;20523;-81
2023/10/17 15:58:23;;;;;;;2.60;2.40;;;13.50;97.60;;;;;;4929861;29;20449;-82
2023/10/17 16:00:53;;;;;;;3.77;2.53;;;13.50;97.70;;;;;;4937047;29;20473;-82
2023/10/17 16:03:24;;;;;;;2.97;2.37;;;13.50;97.80;;;;;;4919902;29;20468;-82
2023/10/17 16:05:54;;;;;;;2.90;2.35;;;13.40;98.00;;;;;;4942645;29;20460;-83
2023/10/17 16:12:20;;;;;;;4.60;3.38;;;13.40;98.40;;;;;;4869364;29;20231;-89
2023/10/17 16:18:12;;;;;;;12.60;7.20;;;13.30;98.60;;;;;;4895527;29;20459;-88
2023/10/17 16:20:43;;;;;;;19.58;9.55;;;13.30;99.00;;;;;;4899782;29;20470;-88
2023/10/17 16:23:10;;;;;;;14.10;8.40;;;13.20;99.00;;;;;;4886657;29;20316;-82
2023/10/17 16:25:40;;;;;;;16.88;9.02;;;13.20;99.00;;;;;;4872744;29;20259;-82
2023/10/17 16:28:13;;;;;;;13.35;7.90;;;13.20;99.20;;;;;;4884825;29;20230;-82
2023/10/17 16:30:41;;;;;;;14.80;7.10;;;13.20;99.40;;;;;;4919277;29;20321;-82
2023/10/17 16:36:30;;;;;;;14.50;9.02;;;13.10;99.90;;;;;;5219410;23;20221;-82
2023/10/17 16:39:23;;;;;;;14.40;9.45;;;13.00;99.90;;;;;;4944678;28;20686;-82
2023/10/17 16:41:50;;;;;;;14.60;8.48;;;12.90;99.90;;;;;;4953404;28;20536;-83
2023/10/17 16:44:27;;;;;;;11.43;7.45;;;12.90;99.90;;;;;;4941391;28;20234;-81
2023/10/17 16:46:55;;;;;;;13.80;7.78;;;12.80;99.90;;;;;;4961445;28;20230;-82
2023/10/17 16:49:46;;;;;;;10.32;7.18;;;12.80;99.90;;;;;;4950395;28;20227;-82